Terminal Aerodrome Forecast
Issued by NWS Sioux Falls, SD

Home | Current Version | Previous Version | Text Only | Print | Product List | Glossary On
Versions: 1 2 3 4 5 6 7 8 9 10 11 12 13 14 15 16 17 18 19 20
000
FTUS43 KFSD 231741
TAFFSD
TAF
KFSD 231741Z 2318/2418 21007KT P6SM SKC
     FM232300 16005KT P6SM SCT250
     FM240800 16007KT 4SM BR SCT150
     FM240900 17005KT 2SM BR SCT006
     FM241000 17006KT 2SM BR OVC004
     FM241430 23007KT 4SM BR OVC006
     FM241530 26007KT P6SM SCT009 BKN250=

USA.gov is the U.S. government's official web portal to all federal, state and local government web resources and services.